Time;durP1;ratioP1;P1;durP2;ratioP2;P2;SDS_P1;SDS_P2;PMS_P1;PMS_P2;Temp;Humidity;BMP_temperature;BMP_pressure;BME280_temperature;BME280_humidity;BME280_pressure;Samples;Min_cycle;Max_cycle;Signal;HPM_P1;HPM_P2
2023/08/07 00:00:23;;;;;;;7.10;3.03;;;15.50;99.90;;;;;;5112230;27;20036;-75
2023/08/07 00:02:49;;;;;;;4.82;3.17;;;15.60;99.90;;;;;;5093737;28;20031;-74
2023/08/07 00:05:16;;;;;;;6.60;3.05;;;15.50;99.90;;;;;;5092642;27;20032;-74
2023/08/07 00:07:42;;;;;;;6.80;3.17;;;15.50;99.90;;;;;;5093223;28;20040;-75
2023/08/07 00:10:08;;;;;;;5.80;2.90;;;15.50;99.90;;;;;;5077810;28;20111;-75
2023/08/07 00:12:34;;;;;;;5.68;3.17;;;15.50;99.90;;;;;;5094183;28;20115;-75
2023/08/07 00:15:00;;;;;;;5.43;2.72;;;15.40;99.90;;;;;;5093735;28;20036;-74
2023/08/07 00:17:26;;;;;;;5.25;2.80;;;15.40;99.90;;;;;;5092948;28;20533;-74
2023/08/07 00:19:51;;;;;;;5.90;3.00;;;15.40;99.90;;;;;;5091399;28;20063;-75
2023/08/07 00:22:17;;;;;;;4.20;3.03;;;15.30;99.90;;;;;;5094051;28;20035;-74
2023/08/07 00:24:42;;;;;;;6.13;2.35;;;15.20;99.90;;;;;;5093920;28;20024;-75
2023/08/07 00:27:10;;;;;;;6.03;2.63;;;15.20;99.90;;;;;;5093239;28;20042;-75
2023/08/07 00:29:36;;;;;;;5.05;2.28;;;15.10;99.90;;;;;;5092926;27;20031;-74
2023/08/07 00:32:02;;;;;;;7.38;2.33;;;15.10;99.90;;;;;;5097204;28;20498;-74
2023/08/07 00:34:28;;;;;;;5.43;2.40;;;15.10;99.90;;;;;;5095953;28;20032;-75
2023/08/07 00:36:53;;;;;;;6.15;2.53;;;15.00;99.90;;;;;;5091884;28;20027;-74
2023/08/07 00:39:19;;;;;;;4.38;2.20;;;15.00;99.90;;;;;;5093296;28;20088;-75
2023/08/07 00:41:44;;;;;;;3.80;2.28;;;15.00;99.90;;;;;;5093506;28;20066;-75
2023/08/07 00:44:10;;;;;;;3.67;2.00;;;14.90;99.90;;;;;;5092615;28;20063;-76
2023/08/07 00:46:36;;;;;;;5.00;2.05;;;14.90;99.90;;;;;;5093364;28;20039;-74
2023/08/07 00:49:03;;;;;;;4.28;1.85;;;14.90;99.90;;;;;;5112982;27;20050;-75
2023/08/07 00:51:29;;;;;;;5.38;2.10;;;14.80;99.90;;;;;;5092058;28;20042;-75
2023/08/07 00:53:54;;;;;;;5.65;1.90;;;14.70;99.90;;;;;;5092537;28;20492;-75
2023/08/07 00:56:21;;;;;;;5.38;2.20;;;14.70;99.90;;;;;;5092780;28;20035;-75
2023/08/07 00:58:46;;;;;;;4.35;1.90;;;14.70;99.90;;;;;;5073316;28;20040;-75
2023/08/07 01:01:12;;;;;;;3.92;1.85;;;14.70;99.90;;;;;;5076597;28;20030;-74
2023/08/07 01:03:37;;;;;;;7.05;1.98;;;14.70;99.90;;;;;;5093124;27;20031;-75
2023/08/07 01:06:03;;;;;;;5.25;2.25;;;14.60;99.90;;;;;;5092540;28;20379;-75
2023/08/07 01:08:29;;;;;;;3.83;2.00;;;14.60;99.90;;;;;;5092229;27;20046;-76
2023/08/07 01:11:26;;;;;;;5.95;2.13;;;14.60;99.90;;;;;;5093129;28;20077;-75
2023/08/07 01:14:09;;;;;;;3.78;2.00;;;14.60;99.90;;;;;;5088962;28;20058;-76
2023/08/07 01:16:45;;;;;;;6.50;2.60;;;14.60;99.90;;;;;;5092461;28;20036;-76
2023/08/07 01:19:25;;;;;;;3.05;1.98;;;14.60;99.90;;;;;;5094201;28;20039;-75
2023/08/07 01:22:03;;;;;;;4.05;2.00;;;14.60;99.90;;;;;;5092546;28;20039;-76
2023/08/07 01:24:28;;;;;;;4.60;2.28;;;14.60;99.90;;;;;;5089358;28;20031;-75
2023/08/07 01:27:00;;;;;;;4.22;2.35;;;14.60;99.90;;;;;;5095211;28;20502;-75
2023/08/07 01:29:57;;;;;;;4.90;2.33;;;14.60;99.90;;;;;;5092832;28;20042;-75
2023/08/07 01:32:41;;;;;;;4.63;2.25;;;14.60;99.90;;;;;;5075171;28;20087;-76
2023/08/07 01:35:08;;;;;;;4.57;2.15;;;14.60;99.90;;;;;;5093204;28;20505;-75
2023/08/07 01:37:38;;;;;;;3.80;2.22;;;14.60;99.90;;;;;;5095163;28;20043;-75
2023/08/07 01:40:05;;;;;;;3.83;2.20;;;14.60;99.90;;;;;;5095468;28;20035;-75
2023/08/07 01:42:32;;;;;;;4.28;1.90;;;14.60;99.90;;;;;;5095791;28;20039;-75
2023/08/07 01:44:58;;;;;;;5.72;1.90;;;14.60;99.90;;;;;;5092217;28;20070;-75
2023/08/07 01:47:23;;;;;;;6.20;2.05;;;14.60;99.90;;;;;;5087763;28;20458;-75
2023/08/07 01:49:49;;;;;;;5.88;2.15;;;14.60;99.90;;;;;;5093750;28;20410;-75
2023/08/07 01:52:15;;;;;;;5.40;2.10;;;14.50;99.90;;;;;;5092580;28;20036;-76
2023/08/07 01:54:40;;;;;;;5.30;2.17;;;14.50;99.90;;;;;;5091943;28;20118;-75
2023/08/07 01:57:06;;;;;;;6.95;2.10;;;14.50;99.90;;;;;;5096279;28;20515;-75
2023/08/07 01:59:31;;;;;;;7.75;2.00;;;14.50;99.90;;;;;;5092882;28;20423;-75
2023/08/07 02:01:57;;;;;;;8.10;2.17;;;14.50;99.90;;;;;;5091569;28;20062;-75
2023/08/07 02:04:22;;;;;;;6.75;2.28;;;14.40;99.90;;;;;;5092855;28;20054;-76
2023/08/07 02:06:48;;;;;;;7.82;2.28;;;14.40;99.90;;;;;;5090925;28;20028;-76
2023/08/07 02:09:13;;;;;;;6.95;2.40;;;14.40;99.90;;;;;;5092953;28;20126;-74
2023/08/07 02:11:39;;;;;;;6.88;2.30;;;14.40;99.90;;;;;;5092411;28;20044;-75
2023/08/07 02:14:04;;;;;;;5.95;2.00;;;14.40;99.90;;;;;;5091458;28;20126;-75
2023/08/07 02:16:30;;;;;;;7.70;2.20;;;14.40;99.90;;;;;;5091959;28;20061;-75
2023/08/07 02:18:55;;;;;;;5.57;2.20;;;14.40;99.90;;;;;;5092964;28;20050;-75
2023/08/07 02:21:21;;;;;;;5.40;2.13;;;14.40;99.90;;;;;;5092112;28;20511;-75
2023/08/07 02:23:46;;;;;;;6.47;2.40;;;14.40;99.90;;;;;;5091753;28;20456;-76
2023/08/07 02:26:12;;;;;;;8.82;2.70;;;14.40;99.90;;;;;;5075161;28;20040;-75
2023/08/07 02:28:37;;;;;;;8.88;2.28;;;14.40;99.90;;;;;;5090959;28;20036;-75
2023/08/07 02:31:03;;;;;;;9.82;2.22;;;14.40;99.90;;;;;;5091633;28;20043;-75
2023/08/07 02:33:30;;;;;;;5.20;1.90;;;14.40;99.90;;;;;;5107959;28;20089;-76
2023/08/07 02:35:56;;;;;;;7.70;2.08;;;14.40;99.90;;;;;;5091791;28;20490;-75
2023/08/07 02:38:21;;;;;;;7.75;2.10;;;14.40;99.90;;;;;;5095321;28;20047;-75
2023/08/07 02:40:47;;;;;;;7.75;1.73;;;14.40;99.90;;;;;;5091741;28;20608;-75
2023/08/07 02:43:12;;;;;;;7.57;2.20;;;14.40;99.90;;;;;;5093901;28;20390;-75
2023/08/07 02:45:38;;;;;;;9.10;2.40;;;14.40;99.90;;;;;;5095270;28;20477;-75
2023/08/07 02:48:04;;;;;;;9.63;2.15;;;14.40;99.90;;;;;;5095757;28;20470;-75
2023/08/07 02:50:32;;;;;;;9.27;2.40;;;14.50;99.90;;;;;;5096430;28;20448;-75
2023/08/07 02:52:58;;;;;;;7.22;2.67;;;14.50;99.90;;;;;;5094936;28;20148;-74
2023/08/07 02:55:24;;;;;;;8.68;2.33;;;14.60;99.90;;;;;;5080788;27;20418;-75
2023/08/07 02:57:49;;;;;;;9.63;3.13;;;14.50;99.90;;;;;;5096267;28;20032;-76
2023/08/07 03:00:15;;;;;;;8.45;2.92;;;14.60;99.90;;;;;;5094483;27;20456;-75
2023/08/07 03:02:40;;;;;;;7.20;2.58;;;14.60;99.90;;;;;;5093434;28;20035;-75
2023/08/07 03:05:06;;;;;;;8.40;2.60;;;14.60;99.90;;;;;;5095187;27;20040;-76
2023/08/07 03:07:32;;;;;;;8.45;2.70;;;14.60;99.90;;;;;;5094184;28;20161;-75
2023/08/07 03:09:58;;;;;;;7.00;2.50;;;14.60;99.90;;;;;;5095824;28;20118;-75
2023/08/07 03:12:23;;;;;;;9.57;2.88;;;14.60;99.90;;;;;;5095239;28;20528;-76
2023/08/07 03:14:49;;;;;;;10.10;2.40;;;14.60;99.90;;;;;;5095146;28;20059;-74
2023/08/07 03:17:14;;;;;;;9.45;2.78;;;14.60;99.90;;;;;;5095069;28;20046;-74
2023/08/07 03:19:42;;;;;;;11.48;2.70;;;14.60;99.90;;;;;;5095823;28;20446;-76
2023/08/07 03:22:08;;;;;;;8.02;2.42;;;14.60;99.90;;;;;;5093514;28;20042;-75
2023/08/07 03:24:33;;;;;;;9.40;2.70;;;14.60;99.90;;;;;;5095727;28;20391;-76
2023/08/07 03:26:59;;;;;;;9.70;2.60;;;14.60;99.90;;;;;;5101658;28;20398;-75
2023/08/07 03:29:24;;;;;;;8.88;2.92;;;14.50;99.90;;;;;;5094772;28;20027;-76
2023/08/07 03:31:50;;;;;;;7.47;2.50;;;14.60;99.90;;;;;;5096942;27;20031;-75
2023/08/07 03:34:15;;;;;;;9.77;2.70;;;14.50;99.90;;;;;;5093978;27;20063;-75
2023/08/07 03:36:41;;;;;;;10.27;2.92;;;14.60;99.90;;;;;;5078240;28;20031;-74
2023/08/07 03:39:07;;;;;;;8.77;2.63;;;14.50;99.90;;;;;;5094736;28;20502;-75
2023/08/07 03:41:33;;;;;;;9.23;2.60;;;14.60;99.90;;;;;;5093864;27;20036;-74
2023/08/07 03:43:58;;;;;;;7.35;2.53;;;14.60;99.90;;;;;;5100075;28;20139;-76
2023/08/07 03:46:24;;;;;;;6.10;2.22;;;14.60;99.90;;;;;;5084149;27;20088;-75
2023/08/07 03:48:49;;;;;;;7.38;2.63;;;14.60;99.90;;;;;;5096118;27;20042;-75
2023/08/07 03:51:16;;;;;;;7.07;2.50;;;14.70;99.90;;;;;;5093864;28;20028;-76
2023/08/07 03:53:42;;;;;;;8.32;2.38;;;14.70;99.90;;;;;;5093531;28;20044;-76
2023/08/07 03:56:07;;;;;;;6.18;2.80;;;14.70;99.90;;;;;;5093959;28;20058;-75
2023/08/07 03:58:33;;;;;;;6.40;2.40;;;14.70;99.90;;;;;;5094327;27;20048;-75
2023/08/07 04:00:59;;;;;;;9.07;2.55;;;14.80;99.90;;;;;;5093191;28;20077;-76
2023/08/07 04:03:24;;;;;;;9.82;2.60;;;14.80;99.90;;;;;;5093121;28;20080;-76
2023/08/07 04:05:54;;;;;;;6.22;2.38;;;14.80;99.90;;;;;;5093460;28;20563;-76
2023/08/07 04:08:20;;;;;;;11.65;2.92;;;14.80;99.90;;;;;;5093397;28;20035;-74
2023/08/07 04:10:57;;;;;;;6.97;2.80;;;14.90;99.90;;;;;;5075956;27;20073;-76
2023/08/07 04:13:22;;;;;;;11.75;2.72;;;14.80;99.90;;;;;;5094149;28;20443;-75
2023/08/07 04:15:48;;;;;;;12.38;3.00;;;14.80;99.90;;;;;;5093399;28;20118;-76
2023/08/07 04:18:14;;;;;;;6.63;2.70;;;14.80;99.90;;;;;;5093752;28;20035;-75
2023/08/07 04:20:39;;;;;;;9.32;2.80;;;14.80;99.90;;;;;;5093943;28;20035;-76
2023/08/07 04:23:05;;;;;;;8.90;3.20;;;14.90;99.90;;;;;;5094454;28;20036;-76
2023/08/07 04:25:30;;;;;;;16.77;3.28;;;14.80;99.90;;;;;;5093609;28;20425;-76
2023/08/07 04:27:56;;;;;;;15.85;3.28;;;14.80;99.90;;;;;;5094615;28;20039;-76
2023/08/07 04:30:21;;;;;;;17.50;3.72;;;14.80;99.90;;;;;;5093284;28;20409;-76
2023/08/07 04:32:47;;;;;;;11.60;3.40;;;14.80;99.90;;;;;;5093791;28;20028;-76
2023/08/07 04:35:12;;;;;;;13.38;3.60;;;14.90;99.90;;;;;;5093515;28;20379;-76
2023/08/07 04:37:38;;;;;;;14.45;3.65;;;14.90;99.90;;;;;;5092514;27;20553;-75
2023/08/07 04:40:04;;;;;;;12.15;3.25;;;14.90;99.90;;;;;;5093192;28;20084;-76
2023/08/07 04:42:30;;;;;;;11.93;3.05;;;14.90;99.90;;;;;;5092499;28;20510;-75
2023/08/07 04:44:55;;;;;;;14.43;3.65;;;14.90;99.90;;;;;;5093447;28;20126;-76
2023/08/07 04:47:21;;;;;;;13.60;4.10;;;14.90;99.90;;;;;;5076650;28;20047;-76
2023/08/07 04:49:47;;;;;;;23.50;3.60;;;15.00;99.90;;;;;;5094257;27;20036;-75
2023/08/07 04:52:12;;;;;;;17.60;4.25;;;14.90;99.90;;;;;;5085210;28;20565;-76
2023/08/07 04:54:38;;;;;;;11.02;3.63;;;14.90;99.90;;;;;;5076500;28;20418;-78
2023/08/07 04:57:03;;;;;;;9.32;3.75;;;14.80;99.90;;;;;;5092549;28;20039;-75
2023/08/07 04:59:30;;;;;;;10.95;3.05;;;14.70;99.90;;;;;;5093399;28;20035;-75
2023/08/07 05:01:56;;;;;;;12.77;3.30;;;14.70;99.90;;;;;;5097914;27;20514;-75
2023/08/07 05:04:21;;;;;;;10.70;3.75;;;14.70;99.90;;;;;;5093463;28;20078;-76
2023/08/07 05:06:48;;;;;;;10.52;3.67;;;14.70;99.90;;;;;;5092217;28;20153;-77
2023/08/07 05:09:14;;;;;;;9.20;3.53;;;14.70;99.90;;;;;;5093707;28;20039;-76
2023/08/07 05:11:39;;;;;;;12.38;3.53;;;14.70;99.90;;;;;;5090970;28;20494;-76
2023/08/07 05:14:05;;;;;;;13.15;3.58;;;14.70;99.90;;;;;;5093653;28;20036;-74
2023/08/07 05:16:30;;;;;;;13.73;3.33;;;14.80;99.90;;;;;;5092486;28;20032;-76
2023/08/07 05:18:56;;;;;;;15.88;3.83;;;14.80;99.90;;;;;;5094813;28;20027;-75
2023/08/07 05:21:21;;;;;;;12.95;4.00;;;14.80;99.90;;;;;;5075363;28;20114;-76
2023/08/07 05:23:47;;;;;;;16.85;3.65;;;14.80;99.90;;;;;;5092931;28;20112;-75
2023/08/07 05:26:13;;;;;;;12.23;3.42;;;14.80;99.90;;;;;;5091069;28;20123;-76
2023/08/07 05:28:38;;;;;;;14.45;3.83;;;14.80;99.90;;;;;;5092705;28;20058;-76
2023/08/07 05:31:04;;;;;;;16.15;4.60;;;14.90;99.90;;;;;;5092431;28;20043;-76
2023/08/07 05:33:29;;;;;;;14.32;4.18;;;14.80;99.90;;;;;;5093048;28;20039;-76
2023/08/07 05:35:55;;;;;;;16.67;4.68;;;14.80;99.90;;;;;;5092174;28;20391;-76
2023/08/07 05:38:20;;;;;;;19.67;4.60;;;14.80;99.90;;;;;;5092649;28;20104;-76
2023/08/07 05:40:46;;;;;;;18.48;4.65;;;14.80;99.90;;;;;;5099089;28;20036;-75
2023/08/07 05:43:12;;;;;;;16.65;4.47;;;14.90;99.90;;;;;;5092562;28;20403;-76
2023/08/07 05:45:38;;;;;;;17.23;4.65;;;14.90;99.90;;;;;;5091916;28;20035;-76
2023/08/07 05:48:03;;;;;;;16.00;3.92;;;15.00;99.90;;;;;;5094768;28;20406;-77
2023/08/07 05:50:29;;;;;;;20.83;5.35;;;15.10;99.90;;;;;;5092314;28;20582;-75
2023/08/07 05:52:54;;;;;;;13.98;3.90;;;15.30;99.90;;;;;;5087092;28;20036;-81
2023/08/07 05:55:20;;;;;;;12.48;3.17;;;15.30;99.90;;;;;;5092625;28;20040;-77
2023/08/07 05:57:46;;;;;;;9.40;2.75;;;15.10;99.90;;;;;;5100538;28;20441;-77
2023/08/07 06:00:17;;;;;;;12.95;3.10;;;15.00;99.90;;;;;;5092300;28;20486;-79
2023/08/07 06:02:43;;;;;;;12.05;3.25;;;14.80;99.90;;;;;;5092936;28;20031;-78
2023/08/07 06:05:09;;;;;;;14.43;3.10;;;14.80;99.90;;;;;;5092913;28;20583;-78
2023/08/07 06:07:35;;;;;;;15.35;3.15;;;14.70;99.90;;;;;;5090368;28;20044;-78
2023/08/07 06:10:01;;;;;;;14.98;3.70;;;14.60;99.90;;;;;;5092220;28;20131;-78
2023/08/07 06:12:26;;;;;;;14.27;3.80;;;14.60;99.90;;;;;;5073180;28;20051;-78
2023/08/07 06:14:52;;;;;;;14.00;3.50;;;14.60;99.90;;;;;;5092590;28;20039;-79
2023/08/07 06:17:18;;;;;;;14.60;3.70;;;14.70;99.90;;;;;;5093472;27;20168;-76
2023/08/07 06:19:43;;;;;;;13.32;4.20;;;14.70;99.90;;;;;;5098909;28;20062;-77
2023/08/07 06:22:09;;;;;;;12.85;3.25;;;14.70;99.90;;;;;;5077890;27;20038;-77
2023/08/07 06:24:34;;;;;;;14.90;3.45;;;14.80;99.90;;;;;;5096987;28;20035;-78
2023/08/07 06:27:03;;;;;;;12.77;3.10;;;14.70;99.90;;;;;;5095485;28;20054;-77
2023/08/07 06:29:28;;;;;;;12.00;3.25;;;14.80;99.90;;;;;;5095972;28;20039;-78
2023/08/07 06:31:54;;;;;;;16.73;3.55;;;14.80;99.90;;;;;;5099043;27;20394;-78
2023/08/07 06:34:19;;;;;;;10.07;3.20;;;14.90;99.90;;;;;;5100717;27;20962;-78
2023/08/07 06:36:45;;;;;;;15.10;3.20;;;15.00;99.90;;;;;;5099694;28;20040;-78
2023/08/07 06:39:10;;;;;;;16.50;3.25;;;15.00;99.90;;;;;;5095243;28;20422;-78
2023/08/07 06:41:37;;;;;;;12.00;3.13;;;15.10;99.90;;;;;;5109096;27;20043;-78
2023/08/07 06:44:02;;;;;;;7.70;2.28;;;15.10;99.90;;;;;;5092478;28;20028;-78
2023/08/07 06:46:28;;;;;;;10.68;2.78;;;15.10;99.90;;;;;;5094081;28;20042;-78
2023/08/07 06:48:54;;;;;;;8.95;2.55;;;15.10;99.90;;;;;;5094877;28;20043;-79
2023/08/07 06:51:19;;;;;;;11.02;2.95;;;15.20;99.90;;;;;;5086785;28;20039;-78
2023/08/07 06:53:45;;;;;;;10.75;2.90;;;15.30;99.90;;;;;;5074527;28;20054;-78
2023/08/07 06:56:10;;;;;;;12.23;2.97;;;15.30;99.90;;;;;;5094458;28;20043;-77
2023/08/07 06:58:36;;;;;;;10.85;3.13;;;15.30;99.90;;;;;;5093765;28;20046;-79
2023/08/07 07:01:01;;;;;;;11.20;2.50;;;15.40;99.90;;;;;;5095611;28;20031;-78
2023/08/07 07:03:27;;;;;;;12.93;2.92;;;15.40;99.90;;;;;;5115086;28;20406;-80
2023/08/07 07:05:52;;;;;;;7.57;2.58;;;15.40;99.90;;;;;;5095893;28;20043;-76
2023/08/07 07:08:18;;;;;;;9.98;2.53;;;15.40;99.90;;;;;;5096513;28;20035;-79
2023/08/07 07:10:43;;;;;;;10.30;2.50;;;15.40;99.90;;;;;;5096937;27;20047;-80
2023/08/07 07:13:09;;;;;;;7.95;2.45;;;15.30;99.90;;;;;;5093598;28;20043;-79
2023/08/07 07:15:35;;;;;;;10.40;2.53;;;15.30;99.90;;;;;;5096222;28;20024;-77
2023/08/07 07:18:01;;;;;;;10.20;2.50;;;15.20;99.90;;;;;;5098733;28;20045;-78
2023/08/07 07:20:27;;;;;;;11.95;3.05;;;15.10;99.90;;;;;;5095132;28;20040;-77
2023/08/07 07:22:53;;;;;;;8.30;2.28;;;15.00;99.90;;;;;;5097217;27;20065;-78
2023/08/07 07:25:18;;;;;;;13.73;2.60;;;15.00;99.90;;;;;;5094742;28;20090;-78
2023/08/07 07:27:44;;;;;;;12.43;2.75;;;15.00;99.90;;;;;;5114102;27;20047;-77
2023/08/07 07:30:10;;;;;;;9.85;2.47;;;15.00;99.90;;;;;;5096342;28;20040;-80
2023/08/07 07:32:35;;;;;;;8.20;2.65;;;14.70;99.90;;;;;;5096777;28;20436;-79
2023/08/07 07:35:01;;;;;;;9.45;2.92;;;14.20;99.90;;;;;;5094164;27;20032;-76
2023/08/07 07:37:26;;;;;;;12.57;3.00;;;13.90;99.90;;;;;;5093579;28;20063;-80
2023/08/07 07:39:52;;;;;;;10.63;3.30;;;13.80;99.90;;;;;;5098790;28;20486;-78
2023/08/07 07:42:18;;;;;;;10.25;2.97;;;13.80;99.90;;;;;;5097703;28;20491;-79
2023/08/07 07:44:43;;;;;;;13.00;3.15;;;13.80;99.90;;;;;;5095484;28;20035;-78
2023/08/07 07:47:09;;;;;;;11.38;3.05;;;14.00;99.90;;;;;;5094653;28;20039;-77
2023/08/07 07:49:34;;;;;;;10.73;3.45;;;14.10;99.90;;;;;;5079643;28;20411;-79
2023/08/07 07:52:00;;;;;;;10.45;3.47;;;14.20;99.90;;;;;;5097195;27;20035;-79
2023/08/07 07:54:27;;;;;;;11.70;3.35;;;14.30;99.90;;;;;;5093471;27;20475;-80
2023/08/07 07:56:53;;;;;;;14.43;3.45;;;14.40;99.90;;;;;;5094869;27;20039;-79
2023/08/07 07:59:18;;;;;;;10.25;3.30;;;14.50;99.90;;;;;;5094377;28;20521;-78
2023/08/07 08:01:44;;;;;;;12.55;4.10;;;14.50;99.90;;;;;;5092057;28;20035;-78
2023/08/07 08:04:12;;;;;;;13.48;3.88;;;14.40;99.90;;;;;;5095717;28;20563;-83
2023/08/07 08:06:39;;;;;;;13.38;3.50;;;14.10;99.90;;;;;;5094042;28;20039;-81
2023/08/07 08:09:05;;;;;;;10.95;3.88;;;14.00;99.90;;;;;;5098107;27;20036;-79
2023/08/07 08:11:31;;;;;;;12.60;3.88;;;13.90;99.90;;;;;;5094267;28;20049;-77
2023/08/07 08:13:57;;;;;;;10.48;3.42;;;13.80;99.90;;;;;;5094991;28;20043;-78
2023/08/07 08:16:22;;;;;;;10.98;3.50;;;13.80;99.90;;;;;;5090692;28;20031;-78
2023/08/07 08:18:48;;;;;;;10.88;3.40;;;13.80;99.90;;;;;;5095707;27;20031;-78
2023/08/07 08:21:13;;;;;;;12.48;3.83;;;13.80;99.90;;;;;;5091185;27;20490;-78
2023/08/07 08:23:39;;;;;;;10.88;3.55;;;13.80;99.90;;;;;;5093078;28;20455;-78
2023/08/07 08:26:04;;;;;;;12.20;4.13;;;13.90;99.90;;;;;;5094537;27;20047;-77
2023/08/07 08:28:30;;;;;;;9.15;3.95;;;14.10;99.90;;;;;;5077182;28;20092;-78
2023/08/07 08:30:55;;;;;;;11.30;3.72;;;14.20;99.90;;;;;;5093840;28;20452;-78
2023/08/07 08:33:21;;;;;;;11.77;3.63;;;14.50;99.90;;;;;;5095353;28;20513;-78
2023/08/07 08:35:46;;;;;;;15.93;3.88;;;14.70;99.90;;;;;;5094301;28;20088;-77
2023/08/07 08:38:12;;;;;;;13.75;4.10;;;14.80;99.90;;;;;;5094560;28;20096;-77
2023/08/07 08:40:38;;;;;;;11.27;3.17;;;15.10;99.90;;;;;;5077003;28;20119;-77
2023/08/07 08:43:05;;;;;;;12.85;3.75;;;15.20;99.90;;;;;;5094905;28;20067;-78
2023/08/07 08:45:37;;;;;;;8.32;3.28;;;15.40;99.90;;;;;;5094486;28;20414;-77
2023/08/07 08:48:04;;;;;;;10.48;3.20;;;15.60;99.90;;;;;;5094912;28;20458;-76
2023/08/07 08:50:30;;;;;;;11.18;2.97;;;15.90;99.90;;;;;;5094440;28;20115;-76
2023/08/07 08:53:00;;;;;;;9.93;2.60;;;16.00;99.90;;;;;;5094471;28;20047;-77
2023/08/07 08:55:26;;;;;;;11.82;2.47;;;16.10;99.90;;;;;;5094143;28;20027;-79
2023/08/07 08:57:53;;;;;;;9.50;2.42;;;16.30;99.90;;;;;;5094522;28;20032;-78
2023/08/07 09:00:22;;;;;;;11.05;2.58;;;16.40;99.90;;;;;;5094282;28;20035;-78
2023/08/07 09:02:49;;;;;;;10.65;2.35;;;16.50;99.90;;;;;;5094546;28;20035;-78
2023/08/07 09:05:17;;;;;;;7.18;2.08;;;16.50;99.90;;;;;;5094119;28;20526;-78
2023/08/07 09:07:43;;;;;;;8.85;2.20;;;16.60;99.90;;;;;;5094950;28;20036;-78
2023/08/07 09:10:11;;;;;;;7.85;2.33;;;16.70;99.90;;;;;;5091647;28;20517;-78
2023/08/07 09:12:54;;;;;;;6.78;2.20;;;16.80;99.90;;;;;;5094032;28;20043;-77
2023/08/07 09:15:21;;;;;;;7.93;2.03;;;16.70;99.90;;;;;;5077193;28;20116;-80
2023/08/07 09:17:49;;;;;;;9.55;2.35;;;16.80;99.90;;;;;;5094479;28;20035;-77
2023/08/07 09:20:14;;;;;;;5.70;2.13;;;16.80;99.90;;;;;;5094434;28;20104;-79
2023/08/07 09:22:43;;;;;;;8.23;2.10;;;16.80;99.90;;;;;;5094616;28;20718;-77
2023/08/07 09:25:09;;;;;;;7.15;2.08;;;16.80;99.90;;;;;;5094391;28;20036;-78
2023/08/07 09:27:37;;;;;;;6.68;2.08;;;16.90;99.90;;;;;;5094654;28;20040;-78
2023/08/07 09:30:04;;;;;;;7.97;2.05;;;17.00;99.90;;;;;;5094511;28;20032;-77
2023/08/07 09:32:30;;;;;;;6.97;2.10;;;17.10;99.90;;;;;;5094192;28;20035;-78
2023/08/07 09:34:55;;;;;;;8.90;2.05;;;17.30;99.90;;;;;;5094427;28;20050;-77
2023/08/07 09:37:23;;;;;;;10.77;2.67;;;17.30;99.90;;;;;;5094167;28;20047;-77
2023/08/07 09:39:48;;;;;;;6.80;2.35;;;17.20;99.90;;;;;;5094355;28;20023;-76
2023/08/07 09:42:15;;;;;;;10.43;2.30;;;16.90;99.90;;;;;;5094678;28;20376;-77
2023/08/07 09:44:41;;;;;;;11.02;2.42;;;16.60;99.90;;;;;;5078000;28;20032;-79
2023/08/07 09:47:18;;;;;;;10.07;2.65;;;16.70;99.90;;;;;;5093477;28;20044;-76
2023/08/07 09:49:45;;;;;;;9.82;2.45;;;16.90;99.90;;;;;;5094718;28;20114;-79
2023/08/07 09:52:15;;;;;;;8.18;2.33;;;17.20;99.90;;;;;;5096907;28;20107;-78
2023/08/07 09:54:40;;;;;;;7.15;2.00;;;17.40;99.90;;;;;;5099769;28;20031;-77
2023/08/07 09:57:07;;;;;;;10.07;2.20;;;17.20;99.90;;;;;;5098681;28;20020;-79
2023/08/07 09:59:33;;;;;;;6.78;1.85;;;17.20;99.90;;;;;;5099051;28;20053;-80
2023/08/07 10:02:02;;;;;;;9.32;2.53;;;17.00;99.90;;;;;;5099204;28;20096;-79
2023/08/07 10:04:28;;;;;;;9.60;2.70;;;16.90;99.90;;;;;;5099097;28;20032;-77
2023/08/07 10:06:54;;;;;;;10.70;2.40;;;16.80;99.90;;;;;;5098385;28;20035;-80
2023/08/07 10:09:20;;;;;;;9.70;2.33;;;16.70;99.90;;;;;;5100533;28;20067;-77
2023/08/07 10:11:46;;;;;;;11.60;2.60;;;16.60;99.90;;;;;;5098522;28;20036;-77
2023/08/07 10:14:16;;;;;;;7.70;2.30;;;16.60;99.90;;;;;;5098476;28;20049;-78
2023/08/07 10:16:42;;;;;;;8.65;2.42;;;16.60;99.90;;;;;;5098493;28;20032;-78
2023/08/07 10:19:09;;;;;;;7.50;2.28;;;16.80;99.90;;;;;;5098662;28;20036;-80
2023/08/07 10:21:37;;;;;;;9.45;2.72;;;16.70;99.90;;;;;;5098474;28;20034;-78
2023/08/07 10:24:07;;;;;;;16.13;3.25;;;17.00;99.90;;;;;;5099449;28;20119;-77
2023/08/07 10:26:35;;;;;;;9.35;2.60;;;17.10;99.90;;;;;;5097972;28;20035;-78
2023/08/07 10:29:04;;;;;;;8.75;2.45;;;17.00;99.90;;;;;;5098214;28;20410;-79
2023/08/07 10:31:31;;;;;;;9.13;2.75;;;16.90;99.90;;;;;;5097949;28;20082;-79
2023/08/07 10:33:57;;;;;;;11.45;2.47;;;16.70;99.90;;;;;;5098001;28;20067;-76
2023/08/07 10:36:23;;;;;;;8.15;2.15;;;16.80;99.90;;;;;;5097610;28;20114;-80
2023/08/07 10:39:06;;;;;;;7.03;2.00;;;16.90;99.90;;;;;;5097659;28;20118;-77
2023/08/07 10:41:47;;;;;;;11.07;2.70;;;17.10;99.90;;;;;;5098318;28;20444;-78
2023/08/07 10:44:30;;;;;;;9.40;2.70;;;17.10;99.90;;;;;;5098468;28;20039;-80
2023/08/07 10:46:57;;;;;;;8.85;2.58;;;17.40;99.90;;;;;;5098003;28;20032;-76
2023/08/07 10:49:36;;;;;;;7.05;2.15;;;17.50;99.90;;;;;;5097985;28;20422;-78
2023/08/07 10:52:11;;;;;;;4.35;1.67;;;17.40;99.90;;;;;;5098347;28;20402;-79
2023/08/07 10:54:43;;;;;;;7.60;1.67;;;17.30;99.90;;;;;;5097654;28;20084;-78
2023/08/07 10:57:15;;;;;;;9.32;1.80;;;17.40;99.90;;;;;;5098008;28;20042;-79
2023/08/07 11:00:00;;;;;;;4.88;1.70;;;17.70;99.90;;;;;;5097719;28;20032;-81
2023/08/07 11:02:29;;;;;;;6.35;1.70;;;18.00;99.90;;;;;;5097624;28;20028;-79
2023/08/07 11:04:56;;;;;;;6.50;1.50;;;18.30;99.90;;;;;;5098846;28;20415;-80
2023/08/07 11:07:30;;;;;;;7.18;2.03;;;18.20;99.90;;;;;;5097748;28;20114;-78
2023/08/07 11:09:57;;;;;;;8.52;2.13;;;17.90;99.90;;;;;;5097932;28;20036;-80
2023/08/07 11:12:26;;;;;;;5.80;1.95;;;17.80;99.90;;;;;;5098755;28;20058;-79
2023/08/07 11:14:52;;;;;;;8.32;1.90;;;17.90;99.90;;;;;;5101232;28;20078;-80
2023/08/07 11:17:19;;;;;;;8.20;2.10;;;18.00;99.90;;;;;;5098067;28;20040;-77
2023/08/07 11:19:47;;;;;;;5.38;2.05;;;17.60;99.90;;;;;;5098068;28;20070;-80
2023/08/07 11:22:16;;;;;;;5.88;1.90;;;17.40;99.90;;;;;;5115955;28;20031;-78
2023/08/07 11:24:41;;;;;;;7.85;1.80;;;17.00;99.90;;;;;;5096769;28;20040;-79
2023/08/07 11:27:08;;;;;;;6.60;2.17;;;17.00;99.90;;;;;;5096275;28;20487;-80
2023/08/07 11:29:34;;;;;;;8.75;2.05;;;17.10;99.90;;;;;;5096422;28;20510;-80
2023/08/07 11:32:00;;;;;;;7.55;2.28;;;17.10;99.90;;;;;;5096442;28;20034;-76
2023/08/07 11:34:25;;;;;;;9.07;2.03;;;17.00;99.90;;;;;;5096478;28;20484;-77
2023/08/07 11:36:51;;;;;;;5.85;2.00;;;17.10;99.90;;;;;;5096314;28;20039;-78
2023/08/07 11:39:19;;;;;;;7.00;2.08;;;17.10;99.90;;;;;;5079524;28;20032;-79
2023/08/07 11:41:45;;;;;;;7.07;2.20;;;17.10;99.90;;;;;;5096647;28;20080;-78
2023/08/07 11:44:11;;;;;;;11.75;2.33;;;17.10;99.90;;;;;;5097447;28;20167;-78
2023/08/07 11:46:36;;;;;;;8.05;2.25;;;17.00;99.90;;;;;;5080050;28;20047;-79
2023/08/07 11:49:04;;;;;;;6.63;2.20;;;16.90;99.90;;;;;;5096408;28;20139;-76
2023/08/07 11:51:30;;;;;;;8.10;2.20;;;16.80;99.90;;;;;;5095843;28;20050;-76
2023/08/07 11:53:58;;;;;;;7.50;2.17;;;16.70;99.90;;;;;;5097028;27;20035;-76
2023/08/07 11:56:24;;;;;;;7.63;1.80;;;16.50;99.90;;;;;;5094586;28;20533;-76
2023/08/07 11:58:51;;;;;;;8.32;2.15;;;16.10;99.90;;;;;;5093132;27;20473;-75
2023/08/07 12:01:22;;;;;;;6.88;2.10;;;15.80;99.90;;;;;;5094569;28;20521;-77
2023/08/07 12:03:54;;;;;;;8.07;2.35;;;15.50;99.90;;;;;;5096582;28;20119;-78
2023/08/07 12:06:21;;;;;;;7.38;2.75;;;15.50;99.90;;;;;;5096445;27;20078;-75
2023/08/07 12:08:50;;;;;;;8.70;2.42;;;15.50;99.90;;;;;;5076173;27;20451;-77
2023/08/07 12:11:15;;;;;;;7.30;2.63;;;15.40;99.90;;;;;;5094725;27;20035;-78
2023/08/07 12:13:45;;;;;;;8.30;3.08;;;15.20;99.90;;;;;;5077654;28;20035;-77
2023/08/07 12:16:15;;;;;;;8.95;2.15;;;15.00;99.90;;;;;;5093623;28;20044;-77
2023/08/07 12:18:45;;;;;;;8.15;2.05;;;14.50;99.90;;;;;;5089189;28;20533;-79
2023/08/07 12:21:13;;;;;;;5.75;2.25;;;14.00;99.90;;;;;;5095313;27;20058;-80
2023/08/07 12:23:38;;;;;;;6.63;2.13;;;13.60;99.90;;;;;;5091685;28;20402;-76
2023/08/07 12:26:06;;;;;;;7.75;2.35;;;13.50;99.90;;;;;;5093980;28;20035;-76
2023/08/07 12:28:38;;;;;;;10.25;2.58;;;13.60;99.90;;;;;;5093420;28;20518;-75
2023/08/07 12:31:03;;;;;;;8.75;2.58;;;13.80;99.90;;;;;;5093935;28;20043;-76
2023/08/07 12:33:30;;;;;;;5.70;2.33;;;14.10;99.90;;;;;;5075047;28;20076;-78
2023/08/07 12:35:57;;;;;;;6.60;2.53;;;14.50;99.90;;;;;;5091214;28;20046;-75
2023/08/07 12:38:23;;;;;;;6.97;2.50;;;14.90;99.90;;;;;;5095620;28;20082;-74
2023/08/07 12:40:49;;;;;;;6.55;2.60;;;15.30;99.90;;;;;;5078599;28;20387;-74